Time;durP1;ratioP1;P1;durP2;ratioP2;P2;SDS_P1;SDS_P2;PMS_P1;PMS_P2;Temp;Humidity;BMP_temperature;BMP_pressure;BME280_temperature;BME280_humidity;BME280_pressure;Samples;Min_cycle;Max_cycle;Signal;HPM_P1;HPM_P2
2021/12/09 00:02:12;;;;;;;196.80;103.55;;;;;;;0.39;71.07;93775.11;1704160;83;21846;-60
2021/12/09 00:04:39;;;;;;;192.75;100.27;;;;;;;0.37;71.15;93779.56;1677102;84;21556;-58
2021/12/09 00:07:06;;;;;;;192.60;101.10;;;;;;;0.35;71.01;93783.27;1676110;83;21107;-60
2021/12/09 00:09:33;;;;;;;194.75;99.20;;;;;;;0.35;70.99;93768.96;1679702;84;20973;-59
2021/12/09 00:11:59;;;;;;;190.92;102.20;;;;;;;0.32;70.81;93767.08;1672746;84;21087;-59
2021/12/09 00:14:31;;;;;;;191.65;101.25;;;;;;;0.31;70.63;93771.73;1694311;84;21048;-59
2021/12/09 00:17:05;;;;;;;188.25;99.72;;;;;;;0.29;70.79;93770.59;1692673;84;21591;-60
2021/12/09 00:19:32;;;;;;;159.95;89.77;;;;;;;0.21;70.47;93771.27;1697803;83;21584;-60
2021/12/09 00:21:59;;;;;;;167.15;89.62;;;;;;;0.04;70.40;93774.20;1672740;84;21067;-60
2021/12/09 00:24:26;;;;;;;180.40;94.65;;;;;;;-0.16;70.56;93774.62;1691360;84;20985;-60
2021/12/09 00:26:53;;;;;;;173.40;91.57;;;;;;;-0.31;70.68;93783.25;1691101;84;21127;-60
2021/12/09 00:29:19;;;;;;;183.27;98.33;;;;;;;-0.44;70.90;93784.35;1695189;84;21477;-61
2021/12/09 00:31:48;;;;;;;193.65;102.32;;;;;;;-0.60;70.97;93791.47;1701301;83;21448;-59
2021/12/09 00:34:16;;;;;;;201.47;101.92;;;;;;;-0.80;71.17;93793.94;1667525;84;21093;-59
2021/12/09 00:36:56;;;;;;;197.75;101.12;;;;;;;-0.97;71.50;93788.69;1648813;86;21469;-60
2021/12/09 00:39:12;;;;;;;202.47;102.45;;;;;;;-1.11;72.12;93796.89;1620767;87;21181;-60
2021/12/09 00:41:39;;;;;;;194.95;100.27;;;;;;;-1.09;72.42;93804.00;1650378;85;21095;-61
2021/12/09 00:44:06;;;;;;;201.05;102.07;;;;;;;-1.09;72.36;93808.05;1639490;87;20989;-60
2021/12/09 00:46:33;;;;;;;211.43;104.15;;;;;;;-1.12;72.55;93810.19;1645329;86;21029;-60
2021/12/09 00:49:00;;;;;;;222.25;108.63;;;;;;;-1.08;72.87;93806.31;1620886;87;21668;-60
2021/12/09 00:51:26;;;;;;;201.25;103.83;;;;;;;-1.01;72.92;93804.12;1620875;87;21157;-60
2021/12/09 00:53:53;;;;;;;255.20;126.58;;;;;;;-0.92;73.04;93808.50;1621338;87;21116;-59
2021/12/09 00:56:20;;;;;;;260.80;132.35;;;;;;;-0.82;73.11;93806.28;1621055;87;21049;-60
2021/12/09 00:58:47;;;;;;;224.25;114.85;;;;;;;-0.71;73.19;93809.68;1623847;87;21718;-59
2021/12/09 01:01:14;;;;;;;226.05;120.08;;;;;;;-0.61;73.07;93806.13;1620022;87;21108;-61
2021/12/09 01:03:42;;;;;;;205.12;104.23;;;;;;;-0.49;72.66;93805.05;1673946;84;21551;-60
2021/12/09 01:06:10;;;;;;;189.00;99.62;;;;;;;-0.40;72.10;93808.04;1696150;83;21136;-60
2021/12/09 01:08:37;;;;;;;229.15;120.57;;;;;;;-0.35;71.92;93808.20;1678986;83;21030;-60
2021/12/09 01:11:04;;;;;;;197.15;102.20;;;;;;;-0.22;71.69;93801.12;1680893;83;20971;-60
2021/12/09 01:13:31;;;;;;;204.55;104.07;;;;;;;-0.16;71.27;93800.86;1703488;83;20999;-59
2021/12/09 01:15:57;;;;;;;211.37;107.97;;;;;;;-0.09;70.92;93806.18;1686376;83;21135;-61
2021/12/09 01:18:24;;;;;;;187.40;94.03;;;;;;;-0.03;70.77;93803.23;1703997;83;21007;-59
2021/12/09 01:20:51;;;;;;;182.20;100.02;;;;;;;-0.08;70.42;93793.62;1706746;84;21487;-61
2021/12/09 01:23:18;;;;;;;172.98;88.90;;;;;;;-0.23;70.54;93803.65;1676434;83;21062;-60
2021/12/09 01:25:44;;;;;;;193.65;101.78;;;;;;;-0.36;70.64;93808.80;1689521;83;21026;-61
2021/12/09 01:28:19;;;;;;;224.35;110.80;;;;;;;-0.51;70.49;93802.55;1670295;84;21125;-60
2021/12/09 01:30:41;;;;;;;214.42;110.80;;;;;;;-0.66;70.77;93801.14;1668344;84;21113;-60
2021/12/09 01:33:09;;;;;;;221.43;111.30;;;;;;;-0.71;71.20;93792.91;1703153;84;21473;-60
2021/12/09 01:35:37;;;;;;;212.10;110.03;;;;;;;-0.74;70.96;93794.28;1693735;84;21563;-60
2021/12/09 01:38:11;;;;;;;208.78;107.22;;;;;;;-0.84;70.74;93790.50;1685348;84;21516;-60
2021/12/09 01:40:33;;;;;;;219.18;108.57;;;;;;;-0.94;70.99;93785.20;1688388;84;21891;-60
2021/12/09 01:43:01;;;;;;;221.18;112.60;;;;;;;-1.00;71.66;93788.14;1687907;83;21040;-60
2021/12/09 01:45:27;;;;;;;370.67;180.97;;;;;;;-0.96;71.93;93793.67;1698868;84;20965;-59
2021/12/09 01:47:54;;;;;;;218.55;107.80;;;;;;;-0.87;72.03;93785.12;1673446;84;21615;-59
2021/12/09 01:50:22;;;;;;;192.68;95.97;;;;;;;-0.76;71.74;93787.16;1685343;84;21009;-60
2021/12/09 01:52:48;;;;;;;198.07;100.38;;;;;;;-0.79;71.56;93790.67;1677538;84;22000;-59
2021/12/09 01:55:17;;;;;;;182.43;91.60;;;;;;;-0.89;71.51;93790.16;1692014;84;21072;-59
2021/12/09 01:57:49;;;;;;;145.60;72.75;;;;;;;-0.98;71.56;93797.95;1691976;83;20973;-60
2021/12/09 02:00:19;;;;;;;153.82;77.30;;;;;;;-1.08;71.73;93790.69;1690585;84;21017;-59
2021/12/09 02:02:46;;;;;;;165.97;83.07;;;;;;;-1.21;71.81;93793.66;1695117;83;21485;-58
2021/12/09 02:05:14;;;;;;;151.12;76.57;;;;;;;-1.34;72.02;93792.62;1686672;84;21092;-59
2021/12/09 02:07:40;;;;;;;152.32;79.32;;;;;;;-1.39;72.38;93788.40;1690251;83;21088;-60
2021/12/09 02:10:11;;;;;;;162.80;84.55;;;;;;;-1.44;72.46;93788.83;1684346;84;21037;-60
2021/12/09 02:12:37;;;;;;;124.85;66.55;;;;;;;-1.41;72.66;93785.90;1696188;83;21016;-59
2021/12/09 02:15:06;;;;;;;199.62;99.87;;;;;;;-1.40;72.77;93796.30;1684246;84;21485;-60
2021/12/09 02:17:34;;;;;;;174.65;89.07;;;;;;;-1.42;72.90;93792.45;1698004;84;21151;-59
2021/12/09 02:20:01;;;;;;;182.88;89.75;;;;;;;-1.44;72.72;93800.17;1690823;84;21527;-60
2021/12/09 02:22:29;;;;;;;190.30;96.28;;;;;;;-1.47;72.80;93796.92;1681101;83;21124;-61
2021/12/09 02:24:56;;;;;;;160.82;82.40;;;;;;;-1.52;72.40;93800.80;1694528;83;21009;-59
2021/12/09 02:27:24;;;;;;;172.90;91.25;;;;;;;-1.60;72.58;93790.44;1691854;84;21034;-59
2021/12/09 02:29:52;;;;;;;154.55;81.12;;;;;;;-1.68;72.71;93791.65;1694642;84;21147;-59
2021/12/09 02:32:19;;;;;;;167.50;84.58;;;;;;;-1.65;72.85;93790.86;1680010;84;21002;-59
2021/12/09 02:34:45;;;;;;;175.00;87.62;;;;;;;-1.66;72.77;93793.38;1693993;83;21087;-59
2021/12/09 02:37:14;;;;;;;180.75;94.67;;;;;;;-1.66;72.98;93792.02;1685047;84;21111;-61
2021/12/09 02:39:42;;;;;;;144.55;75.80;;;;;;;-1.63;72.99;93805.49;1674947;84;21029;-60
2021/12/09 02:42:10;;;;;;;154.25;79.00;;;;;;;-1.53;73.17;93805.25;1691773;83;21050;-59
2021/12/09 02:44:38;;;;;;;140.37;74.10;;;;;;;-1.47;72.89;93805.02;1698235;84;20980;-60
2021/12/09 02:47:05;;;;;;;156.50;83.47;;;;;;;-1.51;72.76;93808.31;1692005;84;21110;-60
2021/12/09 02:49:33;;;;;;;161.70;84.92;;;;;;;-1.57;72.99;93805.83;1693700;84;21155;-59
2021/12/09 02:52:01;;;;;;;169.35;89.22;;;;;;;-1.56;73.34;93803.31;1693578;84;21016;-60
2021/12/09 02:54:28;;;;;;;171.95;90.62;;;;;;;-1.52;73.64;93801.39;1690923;84;21149;-60
2021/12/09 02:57:00;;;;;;;179.27;90.60;;;;;;;-1.43;74.14;93797.09;1678579;84;21099;-61
2021/12/09 02:59:28;;;;;;;178.10;88.03;;;;;;;-1.29;74.08;93801.63;1679045;84;21076;-59
2021/12/09 03:01:59;;;;;;;170.28;83.50;;;;;;;-1.12;74.06;93804.20;1692295;84;21560;-61
2021/12/09 03:04:43;;;;;;;143.90;78.92;;;;;;;-1.00;73.87;93806.44;1693576;84;20981;-59
2021/12/09 03:07:15;;;;;;;158.87;78.90;;;;;;;-0.81;74.23;93806.50;1690839;83;21196;-60
2021/12/09 03:09:52;;;;;;;161.60;76.92;;;;;;;-0.52;73.93;93801.02;1693233;83;21063;-62
2021/12/09 03:12:28;;;;;;;147.17;73.85;;;;;;;-0.29;73.38;93799.83;1679741;84;21536;-60
2021/12/09 03:14:55;;;;;;;192.85;97.88;;;;;;;-0.25;72.33;93797.88;1688841;83;21028;-60
2021/12/09 03:17:21;;;;;;;199.20;102.15;;;;;;;-0.43;71.71;93793.23;1697635;83;21069;-60
2021/12/09 03:19:48;;;;;;;216.42;109.07;;;;;;;-0.56;70.91;93797.59;1679652;84;21135;-59
2021/12/09 03:22:15;;;;;;;221.47;110.97;;;;;;;-0.74;70.49;93807.78;1681234;83;21072;-60
2021/12/09 03:24:42;;;;;;;220.50;108.72;;;;;;;-0.91;70.48;93803.28;1690844;84;21099;-58
2021/12/09 03:27:09;;;;;;;234.60;120.15;;;;;;;-0.98;70.69;93808.75;1678742;84;21139;-59
2021/12/09 03:29:36;;;;;;;183.57;90.05;;;;;;;-0.92;71.06;93809.85;1693350;84;21458;-60
2021/12/09 03:32:06;;;;;;;248.07;119.00;;;;;;;-0.97;70.30;93812.98;1695558;84;22358;-59
2021/12/09 03:34:35;;;;;;;196.12;96.78;;;;;;;-1.22;70.44;93817.19;1694160;83;21161;-61
2021/12/09 03:37:07;;;;;;;205.45;95.67;;;;;;;-1.44;71.03;93821.75;1702638;83;21051;-60
2021/12/09 03:39:35;;;;;;;204.00;99.55;;;;;;;-1.55;71.71;93826.42;1702355;83;21054;-60
2021/12/09 03:42:04;;;;;;;191.90;95.38;;;;;;;-1.59;72.02;93827.02;1691431;83;20982;-61
2021/12/09 03:44:32;;;;;;;194.70;100.33;;;;;;;-1.64;72.20;93820.70;1698183;83;20940;-61
2021/12/09 03:47:01;;;;;;;167.22;86.10;;;;;;;-1.68;72.71;93818.61;1705019;83;21038;-60
2021/12/09 03:49:28;;;;;;;172.15;87.35;;;;;;;-1.65;72.67;93824.55;1688188;83;21097;-60
2021/12/09 03:51:56;;;;;;;169.32;87.40;;;;;;;-1.62;72.61;93827.25;1701928;83;21483;-61
2021/12/09 03:54:24;;;;;;;159.72;83.10;;;;;;;-1.56;72.64;93830.28;1698701;83;20951;-60
2021/12/09 03:56:52;;;;;;;161.22;85.83;;;;;;;-1.50;72.30;93834.12;1688787;83;21172;-59
2021/12/09 03:59:19;;;;;;;162.77;82.25;;;;;;;-1.53;71.95;93831.61;1679088;83;21085;-60
2021/12/09 04:01:46;;;;;;;174.65;85.20;;;;;;;-1.60;72.00;93821.44;1673598;84;20983;-60
2021/12/09 04:04:13;;;;;;;183.95;94.28;;;;;;;-1.62;72.37;93825.90;1687469;83;21087;-60
2021/12/09 04:06:41;;;;;;;175.68;89.50;;;;;;;-1.59;72.86;93822.41;1701245;83;21639;-61
2021/12/09 04:09:10;;;;;;;199.93;98.65;;;;;;;-1.46;72.88;93825.42;1695013;84;21164;-60
2021/12/09 04:11:37;;;;;;;204.78;101.80;;;;;;;-1.42;72.64;93836.38;1694718;84;21525;-59
2021/12/09 04:14:05;;;;;;;156.40;82.67;;;;;;;-1.39;72.61;93814.02;1692786;83;21096;-60
2021/12/09 04:16:32;;;;;;;185.75;97.82;;;;;;;-1.35;72.56;93822.09;1696045;83;21091;-59
2021/12/09 04:18:59;;;;;;;189.97;94.52;;;;;;;-1.40;72.59;93830.58;1693822;83;21009;-60
2021/12/09 04:21:26;;;;;;;199.50;104.47;;;;;;;-1.39;72.52;93822.67;1697594;84;21116;-60
2021/12/09 04:23:53;;;;;;;182.97;96.17;;;;;;;-1.37;72.45;93830.57;1691060;84;21029;-60
2021/12/09 04:26:19;;;;;;;198.85;96.72;;;;;;;-1.34;72.07;93831.72;1680149;84;20989;-61
2021/12/09 04:28:46;;;;;;;188.40;92.40;;;;;;;-1.40;71.98;93834.63;1690040;84;21103;-61
2021/12/09 04:31:14;;;;;;;199.47;93.87;;;;;;;-1.47;72.07;93830.03;1700431;84;21013;-59
2021/12/09 04:33:42;;;;;;;211.85;100.07;;;;;;;-1.56;71.98;93835.67;1696418;84;21064;-61
2021/12/09 04:36:10;;;;;;;210.35;100.50;;;;;;;-1.66;72.09;93832.45;1701563;83;21061;-60
2021/12/09 04:38:37;;;;;;;202.87;98.80;;;;;;;-1.70;72.33;93827.67;1699546;83;20967;-61
2021/12/09 04:41:04;;;;;;;176.40;85.75;;;;;;;-1.68;72.52;93836.13;1699866;83;21015;-61
2021/12/09 04:43:35;;;;;;;195.38;92.10;;;;;;;-1.68;72.59;93834.19;1685465;83;21015;-60
2021/12/09 04:46:02;;;;;;;187.53;87.47;;;;;;;-1.70;72.48;93831.71;1701450;83;21278;-60
2021/12/09 04:48:29;;;;;;;192.98;92.72;;;;;;;-1.70;72.87;93840.55;1696715;83;20991;-59
2021/12/09 04:50:56;;;;;;;238.37;118.87;;;;;;;-1.68;72.96;93844.97;1688384;83;21454;-59
2021/12/09 04:53:22;;;;;;;201.65;98.30;;;;;;;-1.65;73.57;93851.52;1700843;83;21089;-59
2021/12/09 04:55:49;;;;;;;185.25;87.70;;;;;;;-1.50;73.64;93840.27;1699384;83;21093;-60
2021/12/09 04:58:15;;;;;;;384.05;193.37;;;;;;;-1.40;73.51;93844.06;1702516;83;21108;-59
2021/12/09 05:00:42;;;;;;;192.20;102.50;;;;;;;-1.37;73.45;93846.75;1671573;83;21026;-59
2021/12/09 05:03:12;;;;;;;188.93;97.92;;;;;;;-1.36;73.64;93839.45;1704059;83;21019;-60
2021/12/09 05:05:49;;;;;;;225.90;94.55;;;;;;;-1.29;73.62;93839.39;1658812;84;20989;-61
2021/12/09 05:08:18;;;;;;;164.70;82.27;;;;;;;-1.27;73.42;93847.86;1682859;84;21750;-59
2021/12/09 05:13:18;;;;;;;148.43;78.02;;;;;;;-1.21;73.32;93840.88;1678051;83;21650;-61
2021/12/09 05:15:46;;;;;;;143.32;72.92;;;;;;;-1.23;73.19;93834.55;1666471;83;20976;-62
2021/12/09 05:18:13;;;;;;;135.50;67.62;;;;;;;-1.23;73.09;93830.50;1682643;84;21046;-60
2021/12/09 05:20:39;;;;;;;135.82;70.12;;;;;;;-1.23;73.01;93831.06;1682179;84;21038;-60
2021/12/09 05:23:06;;;;;;;166.32;77.45;;;;;;;-1.26;73.04;93839.95;1646931;86;21201;-61
2021/12/09 05:25:33;;;;;;;162.40;83.35;;;;;;;-1.26;72.86;93839.95;1619106;87;21096;-63
2021/12/09 05:28:00;;;;;;;161.62;82.88;;;;;;;-1.29;72.97;93844.78;1628011;86;21039;-63
2021/12/09 05:30:38;;;;;;;144.02;71.82;;;;;;;-1.25;73.15;93846.88;1638692;87;21004;-61
2021/12/09 05:32:55;;;;;;;163.80;82.67;;;;;;;-1.09;73.05;93850.65;1617936;87;20996;-58
2021/12/09 05:35:21;;;;;;;165.12;78.90;;;;;;;-1.04;72.42;93850.79;1657575;84;21126;-57
2021/12/09 05:37:48;;;;;;;156.52;78.95;;;;;;;-1.05;72.60;93850.61;1658633;83;21184;-58
2021/12/09 05:40:15;;;;;;;154.20;77.65;;;;;;;-0.98;72.43;93853.28;1636912;86;21139;-59
2021/12/09 05:42:42;;;;;;;162.65;86.00;;;;;;;-0.97;72.13;93854.21;1647585;86;21180;-57
2021/12/09 05:45:09;;;;;;;163.62;81.17;;;;;;;-1.00;72.18;93852.91;1595400;88;21587;-58
2021/12/09 05:47:37;;;;;;;146.82;75.90;;;;;;;-0.97;72.20;93858.27;1619995;87;21186;-58
2021/12/09 05:50:06;;;;;;;134.07;67.42;;;;;;;-0.93;72.16;93860.95;1620657;87;21096;-57
2021/12/09 05:52:33;;;;;;;156.05;80.47;;;;;;;-0.97;72.09;93862.91;1622429;87;21203;-58
2021/12/09 05:55:00;;;;;;;170.90;89.10;;;;;;;-1.04;72.44;93860.23;1621449;87;21053;-58
2021/12/09 05:57:27;;;;;;;179.23;90.40;;;;;;;-1.02;72.63;93861.95;1619973;87;21112;-58
2021/12/09 05:59:55;;;;;;;169.68;87.42;;;;;;;-0.95;72.65;93864.63;1617102;88;21167;-57
2021/12/09 06:02:22;;;;;;;159.40;85.77;;;;;;;-0.90;72.80;93864.20;1606909;86;21130;-58
2021/12/09 06:04:51;;;;;;;157.95;79.77;;;;;;;-0.71;72.45;93863.67;1603455;87;21549;-59
2021/12/09 06:07:18;;;;;;;157.43;81.42;;;;;;;-0.63;71.90;93864.58;1689651;82;21037;-59
2021/12/09 06:09:45;;;;;;;149.60;79.87;;;;;;;-0.55;71.75;93866.05;1686403;82;21051;-60
2021/12/09 06:12:12;;;;;;;150.10;80.17;;;;;;;-0.48;71.57;93866.58;1662464;82;21221;-59
2021/12/09 06:14:40;;;;;;;160.10;80.45;;;;;;;-0.37;71.53;93861.86;1684555;82;21085;-60
2021/12/09 06:17:07;;;;;;;152.62;80.28;;;;;;;-0.29;71.30;93861.40;1710696;82;21002;-58
2021/12/09 06:19:34;;;;;;;182.57;93.70;;;;;;;-0.22;71.04;93855.92;1702670;82;21134;-58
2021/12/09 06:22:01;;;;;;;197.53;99.97;;;;;;;-0.17;71.34;93856.08;1709359;82;21086;-58
2021/12/09 06:24:28;;;;;;;139.50;73.72;;;;;;;-0.04;71.18;93869.28;1710093;82;21148;-58
2021/12/09 06:26:56;;;;;;;142.18;78.62;;;;;;;-0.05;70.74;93869.09;1655212;82;21575;-59
2021/12/09 06:29:23;;;;;;;160.93;85.38;;;;;;;-0.12;70.73;93862.39;1670830;83;21525;-60
2021/12/09 06:31:50;;;;;;;178.87;95.40;;;;;;;-0.12;71.28;93855.63;1706751;82;21101;-56
2021/12/09 06:34:17;;;;;;;216.17;115.72;;;;;;;0.05;71.40;93862.98;1675492;83;21670;-61
2021/12/09 06:36:44;;;;;;;205.72;111.37;;;;;;;0.31;71.18;93856.14;1626162;85;21598;-61
2021/12/09 06:39:12;;;;;;;181.72;97.67;;;;;;;0.45;70.62;93849.98;1667187;84;21118;-59
2021/12/09 06:41:39;;;;;;;144.13;79.00;;;;;;;0.57;70.29;93852.76;1606904;85;21154;-58
2021/12/09 06:44:06;;;;;;;129.63;73.05;;;;;;;0.61;69.35;93856.18;1648437;84;21006;-57
2021/12/09 06:46:34;;;;;;;109.63;59.60;;;;;;;0.49;69.11;93846.66;1613153;84;20987;-60
2021/12/09 06:49:00;;;;;;;147.90;83.17;;;;;;;0.44;68.99;93847.09;1642852;84;21105;-59
2021/12/09 06:51:27;;;;;;;138.00;74.27;;;;;;;0.35;69.01;93862.27;1641627;85;21431;-59
2021/12/09 06:53:53;;;;;;;175.78;92.53;;;;;;;0.28;68.93;93868.55;1692593;82;21030;-58
2021/12/09 06:56:20;;;;;;;176.37;95.38;;;;;;;0.18;69.35;93861.88;1716272;82;21088;-60
2021/12/09 06:58:47;;;;;;;142.30;74.75;;;;;;;0.21;69.45;93867.26;1676869;83;21042;-58
2021/12/09 07:01:15;;;;;;;157.75;87.60;;;;;;;0.25;69.48;93866.63;1680555;82;21208;-58
2021/12/09 07:03:42;;;;;;;136.10;79.35;;;;;;;0.22;69.44;93863.98;1668846;84;21137;-57
2021/12/09 07:06:11;;;;;;;156.85;90.07;;;;;;;0.16;69.79;93865.00;1657416;83;21218;-60
2021/12/09 07:08:49;;;;;;;173.68;99.13;;;;;;;0.11;70.08;93860.05;1646443;84;21116;-58
2021/12/09 07:11:19;;;;;;;145.72;80.83;;;;;;;0.11;70.35;93864.09;1652784;84;21077;-57
2021/12/09 07:13:46;;;;;;;164.13;92.62;;;;;;;0.17;70.61;93858.42;1641201;85;21157;-57
2021/12/09 07:16:14;;;;;;;151.30;87.50;;;;;;;0.21;70.54;93863.20;1704436;82;21050;-64
2021/12/09 07:18:41;;;;;;;151.60;83.20;;;;;;;0.27;70.41;93857.55;1680636;83;21082;-57
2021/12/09 07:21:08;;;;;;;149.05;80.57;;;;;;;0.33;70.27;93865.97;1687466;82;21076;-60
2021/12/09 07:23:35;;;;;;;188.93;100.97;;;;;;;0.38;70.02;93864.20;1687919;82;21135;-57
2021/12/09 07:26:02;;;;;;;198.97;102.78;;;;;;;0.44;70.17;93861.22;1705539;82;21195;-61
2021/12/09 07:28:29;;;;;;;179.82;98.27;;;;;;;0.59;69.90;93867.39;1651469;84;21077;-58
2021/12/09 07:30:58;;;;;;;177.80;95.92;;;;;;;0.61;69.51;93867.00;1631474;85;21124;-59
2021/12/09 07:33:26;;;;;;;197.57;106.45;;;;;;;0.56;69.55;93862.80;1640382;85;21127;-58
2021/12/09 07:35:52;;;;;;;197.60;109.22;;;;;;;0.51;69.81;93857.06;1699544;82;21104;-59
2021/12/09 07:38:20;;;;;;;210.72;119.08;;;;;;;0.54;69.66;93861.09;1699346;82;21479;-59
2021/12/09 07:40:48;;;;;;;215.05;119.90;;;;;;;0.53;69.90;93860.91;1689262;82;21018;-59
2021/12/09 07:43:15;;;;;;;231.78;132.18;;;;;;;0.59;70.13;93871.45;1710831;82;21116;-58
2021/12/09 07:45:41;;;;;;;219.65;126.82;;;;;;;0.69;70.48;93871.14;1701352;82;21162;-58
2021/12/09 07:48:09;;;;;;;223.50;129.75;;;;;;;0.83;70.55;93862.28;1660503;83;21043;-60
2021/12/09 07:50:38;;;;;;;194.02;109.63;;;;;;;1.00;70.47;93861.84;1674820;82;22958;-58
2021/12/09 07:53:05;;;;;;;177.05;103.70;;;;;;;1.29;70.01;93857.57;1666765;82;21175;-60
2021/12/09 07:55:32;;;;;;;206.10;119.28;;;;;;;1.56;69.15;93867.21;1675854;83;21073;-59
2021/12/09 07:57:59;;;;;;;199.38;116.93;;;;;;;1.63;68.45;93867.66;1664035;83;21171;-59
2021/12/09 08:00:29;;;;;;;233.47;135.52;;;;;;;1.66;68.13;93868.97;1625462;84;21030;-59
2021/12/09 08:02:57;;;;;;;194.35;111.12;;;;;;;1.68;67.96;93871.28;1686732;81;21313;-59
2021/12/09 08:05:24;;;;;;;204.78;118.50;;;;;;;1.74;67.92;93861.67;1678870;83;21050;-61
2021/12/09 08:07:52;;;;;;;202.87;113.10;;;;;;;1.87;67.84;93865.33;1710348;82;21017;-57
2021/12/09 08:10:19;;;;;;;202.55;117.57;;;;;;;2.07;67.63;93858.58;1712215;82;21124;-61
2021/12/09 08:12:47;;;;;;;201.90;115.12;;;;;;;2.16;67.10;93866.35;1711865;82;21108;-59
2021/12/09 08:15:16;;;;;;;169.28;97.50;;;;;;;2.27;67.01;93871.01;1713922;82;21132;-61
2021/12/09 08:17:56;;;;;;;158.50;93.52;;;;;;;2.45;66.64;93865.23;1706289;82;21068;-61
2021/12/09 08:20:15;;;;;;;165.70;95.75;;;;;;;2.64;65.96;93872.63;1679298;82;21018;-66
2021/12/09 08:22:44;;;;;;;132.80;81.30;;;;;;;2.72;65.43;93868.59;1710144;81;21013;-58
2021/12/09 08:25:13;;;;;;;134.07;80.77;;;;;;;2.77;65.44;93876.25;1708741;82;21172;-58
2021/12/09 08:27:45;;;;;;;121.57;73.15;;;;;;;2.74;65.25;93864.87;1708156;82;21137;-59
2021/12/09 08:30:18;;;;;;;157.15;91.15;;;;;;;2.71;65.27;93864.35;1716758;82;21008;-58
2021/12/09 08:32:45;;;;;;;151.85;90.50;;;;;;;2.67;65.11;93868.48;1709150;82;21095;-60
2021/12/09 08:35:15;;;;;;;179.42;103.12;;;;;;;2.67;64.96;93874.52;1711631;82;21069;-61
2021/12/09 08:37:43;;;;;;;170.85;99.22;;;;;;;2.57;64.80;93872.77;1713117;82;21038;-60
2021/12/09 08:40:12;;;;;;;165.22;98.72;;;;;;;2.55;64.95;93877.85;1703119;81;21511;-62
2021/12/09 08:42:38;;;;;;;144.68;82.90;;;;;;;2.60;64.98;93874.64;1707070;82;21490;-58
2021/12/09 08:45:09;;;;;;;145.53;81.87;;;;;;;2.64;64.54;93878.83;1673265;83;21049;-58
2021/12/09 08:47:37;;;;;;;158.93;93.97;;;;;;;2.52;64.58;93876.73;1712935;82;21138;-59
2021/12/09 08:50:06;;;;;;;148.47;87.40;;;;;;;2.41;65.18;93875.40;1684036;83;21089;-58
2021/12/09 08:52:36;;;;;;;172.98;103.92;;;;;;;2.55;65.37;93876.50;1650722;85;21133;-61
2021/12/09 08:55:04;;;;;;;157.37;93.20;;;;;;;2.74;65.37;93862.16;1659895;85;21496;-58
2021/12/09 08:57:37;;;;;;;144.72;89.15;;;;;;;2.92;64.81;93866.63;1660448;85;21119;-57
2021/12/09 09:00:10;;;;;;;148.17;86.97;;;;;;;3.01;64.29;93855.38;1655461;85;22402;-60
2021/12/09 09:02:40;;;;;;;171.40;97.27;;;;;;;3.02;64.05;93865.05;1636535;84;21346;-60
2021/12/09 09:05:11;;;;;;;165.30;95.07;;;;;;;3.00;64.00;93863.34;1654381;85;21136;-60
2021/12/09 09:07:44;;;;;;;191.73;106.35;;;;;;;3.05;63.83;93854.70;1649134;85;21556;-59
2021/12/09 09:10:13;;;;;;;184.57;101.45;;;;;;;3.08;63.72;93851.74;1658304;84;21106;-63
2021/12/09 09:12:40;;;;;;;182.80;104.03;;;;;;;3.18;63.93;93852.87;1630638;84;21049;-61
2021/12/09 09:15:11;;;;;;;176.10;99.97;;;;;;;3.38;63.48;93850.11;1622265;85;21109;-60
2021/12/09 09:17:39;;;;;;;168.78;100.20;;;;;;;3.53;63.41;93852.07;1650431;85;21656;-60
2021/12/09 09:20:09;;;;;;;174.55;104.40;;;;;;;3.57;62.82;93845.38;1635532;85;20999;-62
2021/12/09 09:22:38;;;;;;;170.22;102.70;;;;;;;3.48;63.13;93839.74;1706542;82;21075;-60
2021/12/09 09:25:09;;;;;;;176.55;99.62;;;;;;;3.45;63.28;93833.02;1692188;82;21105;-58
2021/12/09 09:27:37;;;;;;;173.53;106.55;;;;;;;3.44;63.79;93834.82;1712016;82;21506;-60
2021/12/09 09:30:05;;;;;;;173.35;104.85;;;;;;;3.48;63.64;93831.59;1681198;83;21070;-58
2021/12/09 09:32:33;;;;;;;219.40;123.25;;;;;;;3.66;63.97;93833.30;1690686;82;21064;-59
2021/12/09 09:35:02;;;;;;;205.32;113.50;;;;;;;3.85;63.69;93826.99;1678973;84;21156;-61
2021/12/09 09:37:31;;;;;;;216.25;124.50;;;;;;;4.01;63.60;93812.02;1643053;84;21117;-58
2021/12/09 09:40:00;;;;;;;207.22;121.70;;;;;;;4.09;63.02;93811.23;1645086;85;21153;-60
2021/12/09 09:44:57;;;;;;;170.47;104.05;;;;;;;4.18;62.72;93808.07;1646969;84;21470;-60
2021/12/09 09:47:26;;;;;;;179.75;107.45;;;;;;;4.07;62.32;93798.05;1646773;84;21086;-57
2021/12/09 09:49:55;;;;;;;192.62;117.65;;;;;;;3.93;62.68;93797.66;1645582;84;21047;-60
2021/12/09 09:52:21;;;;;;;155.27;94.40;;;;;;;3.93;62.85;93801.73;1659225;84;23401;-60
2021/12/09 09:54:51;;;;;;;178.35;106.27;;;;;;;4.02;62.71;93797.83;1627237;84;21139;-59
2021/12/09 09:57:17;;;;;;;167.72;98.72;;;;;;;4.05;62.42;93796.36;1643754;84;21115;-59
2021/12/09 09:59:44;;;;;;;173.62;110.03;;;;;;;4.10;62.75;93805.37;1684266;82;21073;-61
2021/12/09 10:02:12;;;;;;;177.80;109.22;;;;;;;4.16;62.59;93796.07;1696164;81;21032;-60
2021/12/09 10:04:48;;;;;;;187.20;112.52;;;;;;;4.21;62.86;93790.88;1658042;83;22318;-61
2021/12/09 10:07:19;;;;;;;178.38;106.03;;;;;;;4.37;63.06;93785.97;1650899;84;21167;-58
2021/12/09 10:09:46;;;;;;;164.07;97.88;;;;;;;4.55;62.67;93780.22;1715623;82;21010;-61
2021/12/09 10:12:14;;;;;;;170.55;105.32;;;;;;;4.58;62.45;93773.16;1707298;82;21085;-61
2021/12/09 10:14:50;;;;;;;171.40;106.10;;;;;;;4.51;62.60;93776.05;1678497;83;21179;-59
2021/12/09 10:17:21;;;;;;;151.22;95.97;;;;;;;4.59;62.71;93779.51;1703619;82;21103;-57
2021/12/09 10:20:00;;;;;;;152.75;94.15;;;;;;;4.70;62.00;93775.90;1703244;82;21592;-59
2021/12/09 10:22:32;;;;;;;164.20;103.15;;;;;;;4.64;62.01;93772.16;1680153;83;21438;-59
2021/12/09 10:25:02;;;;;;;157.60;98.60;;;;;;;4.61;61.82;93774.39;1706385;82;21038;-58
2021/12/09 10:27:33;;;;;;;173.22;109.10;;;;;;;4.53;61.75;93765.49;1706661;83;21416;-58
2021/12/09 10:30:14;;;;;;;178.18;108.72;;;;;;;4.39;62.19;93765.91;1682813;83;21102;-59
2021/12/09 10:32:42;;;;;;;180.03;110.85;;;;;;;4.44;62.34;93757.95;1674878;83;21099;-59
2021/12/09 10:35:17;;;;;;;174.68;108.45;;;;;;;4.42;62.19;93758.23;1700311;83;21053;-59
2021/12/09 10:37:46;;;;;;;213.10;125.20;;;;;;;4.32;62.28;93753.25;1699077;82;21017;-60
2021/12/09 10:40:22;;;;;;;168.90;104.00;;;;;;;4.29;62.63;93759.56;1703311;83;21521;-59
2021/12/09 10:42:52;;;;;;;196.47;118.00;;;;;;;4.35;62.70;93755.70;1697354;82;21122;-60
2021/12/09 10:45:29;;;;;;;224.25;133.20;;;;;;;4.28;62.71;93748.48;1674535;83;21127;-61
2021/12/09 10:48:10;;;;;;;199.32;120.60;;;;;;;4.20;63.20;93752.61;1700026;83;20966;-61
2021/12/09 10:50:39;;;;;;;201.22;122.13;;;;;;;4.27;63.26;93748.94;1699490;83;21501;-58
2021/12/09 10:55:56;;;;;;;195.85;116.67;;;;;;;4.59;62.67;93744.11;1681786;83;21496;-60
2021/12/09 10:58:32;;;;;;;204.45;120.50;;;;;;;4.57;62.35;93756.03;1702424;83;21150;-59
2021/12/09 11:01:05;;;;;;;202.97;122.92;;;;;;;4.53;62.50;93746.43;1694143;83;21002;-61
2021/12/09 11:03:57;;;;;;;199.42;117.57;;;;;;;4.53;62.74;93748.57;1696330;82;21146;-61
2021/12/09 11:06:34;;;;;;;174.55;103.40;;;;;;;4.58;62.65;93749.39;1694486;83;21076;-60
2021/12/09 11:09:06;;;;;;;189.10;112.37;;;;;;;4.64;62.52;93750.37;1667696;83;22232;-60
2021/12/09 11:11:40;;;;;;;195.68;117.42;;;;;;;4.67;62.66;93742.72;1687478;83;21569;-58
2021/12/09 11:14:12;;;;;;;177.80;107.00;;;;;;;4.80;62.75;93742.12;1675898;83;20972;-61
2021/12/09 11:16:50;;;;;;;180.50;107.30;;;;;;;4.93;62.46;93742.90;1699166;83;21533;-58
2021/12/09 11:19:35;;;;;;;179.95;109.03;;;;;;;4.96;62.74;93739.91;1673040;83;21462;-59
2021/12/09 11:22:00;;;;;;;173.80;104.72;;;;;;;4.94;62.91;93733.52;1689359;83;21063;-59
2021/12/09 11:24:35;;;;;;;183.93;114.00;;;;;;;4.95;62.62;93743.22;1692388;83;21131;-60